createdAt,value
2018-03-19T00:02:32.164Z,101133.28
2018-03-19T00:07:33.540Z,101127.89
2018-03-19T00:12:34.939Z,101140.80
2018-03-19T00:17:36.322Z,101141.81
2018-03-19T00:22:37.740Z,101141.31
2018-03-19T00:27:39.152Z,101139.22
2018-03-19T00:32:40.537Z,101131.67
2018-03-19T00:37:41.879Z,101137.55
2018-03-19T00:42:43.458Z,101133.08
2018-03-19T00:47:45.538Z,101135.63
2018-03-19T00:52:46.890Z,101139.98
2018-03-19T00:57:48.258Z,101138.41
2018-03-19T01:02:49.622Z,101131.89
2018-03-19T01:07:51.695Z,101127.03
2018-03-19T01:12:53.038Z,101124.73
2018-03-19T01:17:54.428Z,101121.80
2018-03-19T01:22:55.821Z,101117.95
2018-03-19T01:27:57.174Z,101113.52
2018-03-19T01:32:58.526Z,101115.94
2018-03-19T01:37:59.897Z,101107.72
2018-03-19T01:43:01.243Z,101102.61
2018-03-19T01:48:02.648Z,101112.33
2018-03-19T01:53:04.044Z,101102.88
2018-03-19T01:58:06.133Z,101107.86
2018-03-19T02:03:07.549Z,101088.16
2018-03-19T02:08:09.000Z,101091.91
2018-03-19T02:13:10.452Z,101093.69
2018-03-19T02:18:11.847Z,101095.23
2018-03-19T02:23:13.247Z,101088.68
2018-03-19T02:28:14.694Z,101093.44
2018-03-19T02:33:16.080Z,101083.73
2018-03-19T02:38:18.221Z,101094.78
2018-03-19T02:43:19.613Z,101090.43
2018-03-19T02:48:21.219Z,101100.53
2018-03-19T02:53:22.599Z,101091.90
2018-03-19T02:58:23.970Z,101097.06
2018-03-19T03:03:26.156Z,101098.87
2018-03-19T03:08:27.532Z,101105.92
2018-03-19T03:13:28.912Z,101109.02
2018-03-19T03:18:30.256Z,101117.41
2018-03-19T03:23:31.631Z,101120.09
2018-03-19T03:28:33.818Z,101122.10
2018-03-19T03:33:35.189Z,101111.56
2018-03-19T03:38:36.604Z,101116.29
2018-03-19T03:43:37.952Z,101127.83
2018-03-19T03:48:39.437Z,101124.26
2018-03-19T03:53:40.811Z,101132.08
2018-03-19T03:58:42.888Z,101132.61
2018-03-19T04:03:44.292Z,101129.98
2018-03-19T04:08:46.381Z,101135.80
2018-03-19T04:13:47.732Z,101141.52
2018-03-19T04:18:49.113Z,101139.39
2018-03-19T04:23:50.442Z,101143.86
2018-03-19T04:28:51.965Z,101135.42
2018-03-19T04:33:54.128Z,101133.39
2018-03-19T04:38:55.500Z,101143.81
2018-03-19T04:43:56.838Z,101139.17
2018-03-19T04:48:58.211Z,101140.25
2018-03-19T04:53:59.556Z,101137.05
2018-03-19T04:59:00.927Z,101152.15
2018-03-19T05:04:03.054Z,101155.19
2018-03-19T05:09:04.492Z,101144.33
2018-03-19T05:14:05.884Z,101157.52
2018-03-19T05:19:07.257Z,101158.59
2018-03-19T05:24:08.625Z,101153.44
2018-03-19T05:29:09.971Z,101158.87
2018-03-19T05:34:11.363Z,101164.31
2018-03-19T05:39:12.707Z,101177.46
2018-03-19T05:44:15.015Z,101179.32
2018-03-19T05:49:16.438Z,101181.96
2018-03-19T05:54:17.786Z,101180.34
2018-03-19T05:59:19.129Z,101183.35
2018-03-19T06:04:20.451Z,101182.22
2018-03-19T06:09:21.806Z,101199.48
2018-03-19T06:14:23.129Z,101205.27
2018-03-19T06:19:25.235Z,101201.63
2018-03-19T06:24:27.344Z,101214.09
2018-03-19T06:29:28.697Z,101210.21
2018-03-19T06:34:30.051Z,101210.52
2018-03-19T06:39:31.419Z,101224.61
2018-03-19T06:44:33.727Z,101225.53
2018-03-19T06:49:35.884Z,101234.17
2018-03-19T06:54:37.266Z,101231.27
2018-03-19T06:59:38.742Z,101237.64
2018-03-19T07:04:40.091Z,101229.44
2018-03-19T07:09:41.492Z,101234.30
2018-03-19T07:14:43.583Z,101232.95
2018-03-19T07:19:45.911Z,101236.50
2018-03-19T07:24:47.955Z,101238.48
2018-03-19T07:29:49.310Z,101242.70
2018-03-19T07:34:51.388Z,101242.92
2018-03-19T07:39:52.740Z,101249.05
2018-03-19T07:44:54.109Z,101237.02
2018-03-19T07:49:55.455Z,101249.30
2018-03-19T07:54:56.811Z,101232.95
2018-03-19T07:59:58.184Z,101243.23
2018-03-19T08:04:59.591Z,101242.58
2018-03-19T08:10:00.973Z,101250.23
2018-03-19T08:15:02.403Z,101248.86
2018-03-19T08:20:03.799Z,101244.86
2018-03-19T08:25:05.272Z,101246.27
2018-03-19T08:30:06.679Z,101245.91
2018-03-19T08:35:08.056Z,101234.83
2018-03-19T08:40:09.420Z,101239.45
2018-03-19T08:45:10.771Z,101246.48
2018-03-19T08:50:12.137Z,101218.81
2018-03-19T08:55:13.456Z,101235.48
2018-03-19T09:00:15.593Z,101243.19
2018-03-19T09:05:16.958Z,101238.84
2018-03-19T09:10:19.035Z,101239.32
2018-03-19T09:15:20.441Z,101235.44
2018-03-19T09:20:21.784Z,101251.28
2018-03-19T09:25:23.152Z,101249.95
2018-03-19T09:30:24.497Z,101245.42
2018-03-19T09:35:25.827Z,101243.95
2018-03-19T09:40:27.165Z,101251.11
2018-03-19T09:45:28.548Z,101265.47
2018-03-19T09:50:29.940Z,101253.60
2018-03-19T09:55:31.305Z,101247.13
2018-03-19T10:00:32.683Z,101247.21
2018-03-19T10:05:34.058Z,101239.88
2018-03-19T10:10:35.476Z,101244.59
2018-03-19T10:15:36.816Z,101232.78
2018-03-19T10:20:38.210Z,101228.55
2018-03-19T10:25:39.587Z,101245.91
2018-03-19T10:30:40.964Z,101232.58
2018-03-19T10:35:42.370Z,101229.53
2018-03-19T10:40:43.709Z,101226.56
2018-03-19T10:45:45.085Z,101226.56
2018-03-19T10:50:47.184Z,101226.03
2018-03-19T10:55:48.526Z,101226.36
2018-03-19T11:00:49.875Z,101220.11
2018-03-19T11:05:55.188Z,101212.53
2018-03-19T11:10:56.540Z,101211.68
2018-03-19T11:15:58.607Z,101206.24
2018-03-19T11:20:59.951Z,101194.69
2018-03-19T11:26:01.309Z,101192.53
2018-03-19T11:31:03.459Z,101182.66
2018-03-19T11:36:04.892Z,101178.88
2018-03-19T11:41:06.368Z,101171.95
2018-03-19T11:46:07.699Z,101177.08
2018-03-19T11:51:09.780Z,101172.80
2018-03-19T11:56:12.094Z,101179.80
2018-03-19T12:01:14.143Z,101166.38
2018-03-19T12:06:15.532Z,101167.23
2018-03-19T12:11:16.909Z,101162.13
2018-03-19T12:16:19.016Z,101164.29
2018-03-19T12:21:21.152Z,101157.39
2018-03-19T12:26:22.622Z,101163.86
2018-03-19T12:31:24.012Z,101153.52
2018-03-19T12:36:26.201Z,101153.94
2018-03-19T12:41:27.550Z,101130.16
2018-03-19T12:46:28.958Z,101131.80
2018-03-19T12:51:31.228Z,101134.42
2018-03-19T12:56:32.611Z,101134.45
2018-03-19T13:01:34.729Z,101132.61
2018-03-19T13:06:37.023Z,101118.80
2018-03-19T13:11:39.205Z,101117.96
2018-03-19T13:16:40.999Z,101103.35
2018-03-19T13:21:42.426Z,101105.95
2018-03-19T13:26:44.526Z,101102.30
2018-03-19T13:31:45.875Z,101101.43
2018-03-19T13:36:47.193Z,101095.36
2018-03-19T13:41:48.560Z,101093.13
2018-03-19T13:46:49.939Z,101093.10
2018-03-19T13:51:51.305Z,101085.40
2018-03-19T13:56:52.663Z,101083.22
2018-03-19T14:01:53.996Z,101068.47
2018-03-19T14:06:55.360Z,101072.73
2018-03-19T14:11:57.559Z,101068.78
2018-03-19T14:16:59.676Z,101052.24
2018-03-19T14:22:01.069Z,101053.86
2018-03-19T14:27:03.236Z,101042.10
2018-03-19T14:32:04.623Z,101046.77
2018-03-19T14:37:05.967Z,101038.51
2018-03-19T14:42:09.164Z,101039.03
2018-03-19T14:47:13.120Z,101039.09
2018-03-19T14:52:14.524Z,101038.17
2018-03-19T14:57:16.654Z,101038.45
2018-03-19T15:02:18.008Z,101030.11
2018-03-19T15:07:19.341Z,101025.88
2018-03-19T15:12:20.760Z,101023.60
2018-03-19T15:17:22.445Z,101019.48
2018-03-19T15:22:23.841Z,101009.82
2018-03-19T15:27:25.225Z,101006.75
2018-03-19T15:32:26.583Z,101003.73
2018-03-19T15:37:27.955Z,101002.72
2018-03-19T15:42:29.289Z,101006.64
2018-03-19T15:47:30.683Z,101006.64
2018-03-19T15:52:32.042Z,101004.12
2018-03-19T15:57:34.333Z,101000.86
2018-03-19T16:02:35.703Z,101000.81
2018-03-19T16:07:37.044Z,100993.86
2018-03-19T16:12:38.425Z,100998.58
2018-03-19T16:17:40.631Z,100993.65
2018-03-19T16:22:42.060Z,101004.20
2018-03-19T16:27:43.441Z,101012.11
2018-03-19T16:32:44.838Z,101012.47
2018-03-19T16:37:46.208Z,101013.03
2018-03-19T16:42:47.592Z,101010.23
2018-03-19T16:47:48.944Z,101005.14
2018-03-19T16:52:50.497Z,101015.66
2018-03-19T16:57:51.847Z,101021.33
2018-03-19T17:02:53.717Z,101020.37
2018-03-19T17:07:55.114Z,101033.98
2018-03-19T17:12:56.576Z,101029.75
2018-03-19T17:17:57.960Z,101028.01
2018-03-19T17:22:59.355Z,101031.54
2018-03-19T17:28:00.747Z,101027.78
2018-03-19T17:33:02.131Z,101024.92
2018-03-19T17:38:03.592Z,101034.41
2018-03-19T17:43:04.972Z,101043.09
2018-03-19T17:48:06.422Z,101045.77
2018-03-19T17:53:07.825Z,101050.13
2018-03-19T17:58:10.196Z,101062.78
2018-03-19T18:03:12.387Z,101068.89
2018-03-19T18:08:13.821Z,101068.52
2018-03-19T18:13:15.220Z,101069.38
2018-03-19T18:18:16.701Z,101071.52
2018-03-19T18:23:18.081Z,101083.18
2018-03-19T18:28:19.487Z,101088.34
2018-03-19T18:33:20.878Z,101090.05
2018-03-19T18:38:22.261Z,101102.98
2018-03-19T18:43:23.580Z,101102.53
2018-03-19T18:48:25.978Z,101103.80
2018-03-19T18:53:27.372Z,101112.39
2018-03-19T18:58:28.752Z,101119.20
2018-03-19T19:03:30.118Z,101123.48
2018-03-19T19:08:31.594Z,101117.83
2018-03-19T19:13:33.940Z,101113.93
2018-03-19T19:18:35.307Z,101119.52
2018-03-19T19:23:38.903Z,101129.81
2018-03-19T19:28:40.248Z,101122.89
2018-03-19T19:33:41.685Z,101124.47
2018-03-19T19:38:43.097Z,101130.98
2018-03-19T19:43:44.527Z,101122.81
2018-03-19T19:48:46.079Z,101121.89
2018-03-19T19:53:47.568Z,101121.45
2018-03-19T19:58:48.932Z,101127.87
2018-03-19T20:03:51.061Z,101125.27
2018-03-19T20:08:53.338Z,101142.52
2018-03-19T20:13:54.794Z,101135.19
2018-03-19T20:18:56.498Z,101145.91
2018-03-19T20:23:58.688Z,101147.09
2018-03-19T20:29:00.131Z,101144.14
2018-03-19T20:34:01.657Z,101150.56
2018-03-19T20:39:03.287Z,101158.22
2018-03-19T20:44:04.772Z,101151.75
2018-03-19T20:49:07.046Z,101153.95
2018-03-19T20:54:08.598Z,101147.50
2018-03-19T20:59:11.015Z,101147.83
2018-03-19T21:04:12.713Z,101143.52
2018-03-19T21:09:14.099Z,101136.95
2018-03-19T21:14:16.262Z,101134.34
2018-03-19T21:19:17.601Z,101124.47
2018-03-19T21:24:18.967Z,101123.06
2018-03-19T21:29:20.352Z,101124.34
2018-03-19T21:34:21.719Z,101120.88
2018-03-19T21:39:23.181Z,101116.06
2018-03-19T21:44:25.384Z,101105.23
2018-03-19T21:49:26.888Z,101101.22
2018-03-19T21:54:29.179Z,101108.84
2018-03-19T21:59:30.686Z,101111.32
2018-03-19T22:04:32.156Z,101121.93
2018-03-19T22:09:33.577Z,101114.67
2018-03-19T22:14:35.013Z,101109.94
2018-03-19T22:19:36.437Z,101118.44
2018-03-19T22:24:38.653Z,101117.08
2018-03-19T22:29:40.137Z,101115.36
2018-03-19T22:34:42.336Z,101111.88
2018-03-19T22:39:44.087Z,101106.20
2018-03-19T22:44:45.660Z,101096.98
2018-03-19T22:49:47.054Z,101088.28
2018-03-19T22:54:48.396Z,101101.78
2018-03-19T22:59:49.796Z,101097.09
2018-03-19T23:10:41.536Z,101070.81
2018-03-19T23:15:42.895Z,101063.09
2018-03-19T23:20:44.295Z,101052.89
2018-03-19T23:25:45.809Z,101048.28
2018-03-19T23:30:47.341Z,101055.73
2018-03-19T23:35:48.768Z,101056.27
2018-03-19T23:40:50.420Z,101052.16
2018-03-19T23:45:51.895Z,101051.94
2018-03-19T23:50:54.190Z,101052.98
2018-03-19T23:55:55.775Z,101057.77
